createdAt,value
2018-10-11T00:00:15.133Z,12.63
2018-10-11T00:03:40.169Z,12.54
2018-10-11T00:07:19.821Z,12.54
2018-10-11T00:10:44.036Z,12.23
2018-10-11T00:14:07.361Z,11.91
2018-10-11T00:17:34.118Z,12.00
2018-10-11T00:20:58.746Z,12.15
2018-10-11T00:24:27.993Z,12.32
2018-10-11T00:27:51.207Z,12.37
2018-10-11T00:31:15.328Z,12.13
2018-10-11T00:34:38.453Z,11.63
2018-10-11T00:38:01.654Z,11.40
2018-10-11T00:41:24.743Z,11.49
2018-10-11T00:44:47.835Z,12.09
2018-10-11T00:48:11.367Z,11.83
2018-10-11T00:51:34.791Z,11.74
2018-10-11T00:54:58.980Z,11.15
2018-10-11T00:58:22.408Z,11.76
2018-10-11T01:01:46.653Z,11.79
2018-10-11T01:05:09.717Z,11.58
2018-10-11T01:08:33.041Z,11.78
2018-10-11T01:11:56.352Z,11.85
2018-10-11T01:15:19.483Z,11.26
2018-10-11T01:18:42.568Z,11.69
2018-10-11T01:22:05.772Z,11.34
2018-10-11T01:25:28.867Z,10.20
2018-10-11T01:28:52.905Z,10.95
2018-10-11T01:32:16.154Z,11.30
2018-10-11T01:35:40.277Z,11.21
2018-10-11T01:39:05.605Z,11.10
2018-10-11T01:42:28.893Z,11.32
2018-10-11T01:45:52.515Z,11.28
2018-10-11T01:49:15.762Z,11.69
2018-10-11T01:52:38.720Z,11.63
2018-10-11T01:56:01.995Z,11.80
2018-10-11T02:02:58.140Z,11.68
2018-10-11T02:06:21.249Z,11.55
2018-10-11T02:09:44.227Z,11.62
2018-10-11T02:13:07.718Z,11.43
2018-10-11T02:17:33.749Z,11.44
2018-10-11T02:20:56.937Z,9.22
2018-10-11T02:24:20.815Z,10.23
2018-10-11T02:27:43.692Z,10.64
2018-10-11T02:31:06.694Z,10.81
2018-10-11T02:34:29.769Z,10.86
2018-10-11T02:37:52.938Z,10.78
2018-10-11T02:41:15.987Z,10.79
2018-10-11T02:44:39.176Z,11.04
2018-10-11T02:48:17.084Z,11.15
2018-10-11T02:51:41.111Z,10.66
2018-10-11T02:55:04.806Z,10.60
2018-10-11T02:58:38.684Z,10.90
2018-10-11T03:02:23.147Z,10.96
2018-10-11T03:05:46.730Z,11.48
2018-10-11T03:09:10.198Z,11.40
2018-10-11T03:12:33.534Z,10.67
2018-10-11T03:15:59.539Z,11.18
2018-10-11T03:19:22.806Z,11.20
2018-10-11T03:22:45.865Z,10.74
2018-10-11T03:26:09.249Z,10.41
2018-10-11T03:29:32.288Z,9.94
2018-10-11T03:33:00.749Z,9.60
2018-10-11T03:36:24.072Z,10.21
2018-10-11T03:39:47.286Z,10.62
2018-10-11T03:43:10.591Z,10.68
2018-10-11T03:46:33.910Z,10.77
2018-10-11T03:49:57.086Z,10.87
2018-10-11T03:53:20.285Z,10.73
2018-10-11T03:56:44.434Z,10.58
2018-10-11T04:00:07.614Z,10.45
2018-10-11T04:03:30.774Z,10.80
2018-10-11T04:06:53.944Z,10.69
2018-10-11T04:10:17.037Z,10.93
2018-10-11T04:13:40.393Z,10.72
2018-10-11T04:17:04.449Z,9.81
2018-10-11T04:20:27.434Z,10.62
2018-10-11T04:23:50.478Z,10.34
2018-10-11T04:27:13.654Z,10.43
2018-10-11T04:30:37.424Z,10.54
2018-10-11T04:34:00.515Z,10.57
2018-10-11T04:37:23.567Z,10.60
2018-10-11T04:40:46.948Z,10.40
2018-10-11T04:44:09.980Z,10.37
2018-10-11T04:47:33.142Z,10.22
2018-10-11T04:50:56.021Z,10.33
2018-10-11T04:54:18.923Z,10.40
2018-10-11T04:57:42.952Z,10.08
2018-10-11T05:01:06.266Z,10.33
2018-10-11T05:04:29.313Z,10.45
2018-10-11T05:07:52.475Z,10.48
2018-10-11T05:11:15.356Z,10.57
2018-10-11T05:14:39.349Z,10.40
2018-10-11T05:18:02.860Z,10.57
2018-10-11T05:21:25.736Z,10.71
2018-10-11T05:24:49.896Z,10.82
2018-10-11T05:28:13.064Z,10.77
2018-10-11T05:31:36.054Z,10.21
2018-10-11T05:34:59.213Z,10.52
2018-10-11T05:38:22.320Z,10.82
2018-10-11T05:41:45.665Z,10.50
2018-10-11T05:45:14.349Z,10.81
2018-10-11T05:48:37.491Z,10.78
2018-10-11T05:52:00.507Z,10.59
2018-10-11T05:55:23.456Z,10.66
2018-10-11T05:58:46.536Z,10.77
2018-10-11T06:02:10.147Z,10.94
2018-10-11T06:05:33.151Z,9.99
2018-10-11T06:08:56.238Z,10.58
2018-10-11T06:12:19.762Z,10.60
2018-10-11T06:15:42.929Z,10.03
2018-10-11T06:19:06.497Z,9.21
2018-10-11T06:22:30.548Z,9.16
2018-10-11T06:25:53.751Z,10.15
2018-10-11T06:29:16.819Z,10.09
2018-10-11T06:32:40.058Z,10.11
2018-10-11T06:36:03.519Z,11.47
2018-10-11T06:39:26.676Z,11.92
2018-10-11T06:42:49.884Z,12.23
2018-10-11T06:46:13.360Z,12.85
2018-10-11T06:49:36.557Z,13.44
2018-10-11T06:53:01.026Z,14.29
2018-10-11T06:56:24.349Z,14.63
2018-10-11T06:59:47.478Z,14.95
2018-10-11T07:03:10.637Z,13.31
2018-10-11T07:06:33.763Z,14.55
2018-10-11T07:09:56.838Z,14.60
2018-10-11T07:13:20.093Z,15.14
2018-10-11T07:16:43.239Z,13.16
2018-10-11T07:20:07.218Z,14.66
2018-10-11T07:23:30.313Z,14.38
2018-10-11T07:26:53.458Z,13.38
2018-10-11T07:30:16.589Z,12.42
2018-10-11T07:33:39.548Z,12.12
2018-10-11T07:37:02.641Z,13.55
2018-10-11T07:40:25.665Z,15.00
2018-10-11T07:43:48.723Z,15.96
2018-10-11T07:47:12.044Z,16.44
2018-10-11T07:50:34.885Z,15.91
2018-10-11T07:54:01.381Z,15.80
2018-10-11T07:57:25.412Z,15.72
2018-10-11T08:00:48.400Z,14.81
2018-10-11T08:04:11.515Z,13.66
2018-10-11T08:07:35.835Z,14.29
2018-10-11T08:10:58.936Z,15.53
2018-10-11T08:14:22.070Z,15.98
2018-10-11T08:17:45.502Z,16.61
2018-10-11T08:21:08.140Z,17.16
2018-10-11T08:24:31.062Z,17.61
2018-10-11T08:27:53.947Z,17.76
2018-10-11T08:31:16.760Z,17.56
2018-10-11T08:34:39.767Z,16.85
2018-10-11T08:38:02.995Z,17.22
2018-10-11T08:41:27.376Z,16.43
2018-10-11T08:44:50.820Z,17.02
2018-10-11T08:48:13.755Z,16.38
2018-10-11T08:51:36.723Z,16.36
2018-10-11T08:55:30.332Z,16.35
2018-10-11T08:58:53.320Z,16.17
2018-10-11T09:02:16.431Z,16.21
2018-10-11T09:05:40.111Z,16.75
2018-10-11T09:09:03.276Z,16.36
2018-10-11T09:12:26.054Z,17.31
2018-10-11T09:15:48.930Z,18.09
2018-10-11T09:19:11.817Z,18.72
2018-10-11T09:22:34.698Z,18.75
2018-10-11T09:25:57.600Z,18.02
2018-10-11T09:29:20.437Z,17.96
2018-10-11T09:32:43.189Z,18.01
2018-10-11T09:36:06.104Z,18.14
2018-10-11T09:39:29.066Z,18.96
2018-10-11T09:42:52.082Z,19.76
2018-10-11T09:46:15.258Z,20.32
2018-10-11T09:49:38.101Z,20.44
2018-10-11T09:53:01.036Z,21.07
2018-10-11T09:56:31.244Z,21.20
2018-10-11T09:59:54.516Z,21.33
2018-10-11T10:03:17.512Z,21.98
2018-10-11T10:06:40.596Z,21.63
2018-10-11T10:10:18.289Z,19.89
2018-10-11T10:13:41.269Z,19.28
2018-10-11T10:17:06.089Z,19.43
2018-10-11T10:20:29.021Z,20.41
2018-10-11T10:23:51.889Z,19.64
2018-10-11T10:27:14.802Z,20.24
2018-10-11T10:30:43.022Z,20.31
2018-10-11T10:34:06.055Z,19.92
2018-10-11T10:37:29.871Z,19.83
2018-10-11T10:40:52.885Z,20.93
2018-10-11T10:44:15.924Z,21.75
2018-10-11T10:47:38.872Z,22.50
2018-10-11T10:51:01.795Z,22.32
2018-10-11T10:54:27.653Z,22.79
2018-10-11T10:58:21.185Z,23.05
2018-10-11T11:01:44.116Z,23.57
2018-10-11T11:05:21.743Z,23.65
2018-10-11T11:08:44.881Z,23.19
2018-10-11T11:12:22.423Z,23.74
2018-10-11T11:15:45.340Z,23.57
2018-10-11T11:19:08.749Z,23.46
2018-10-11T11:22:31.792Z,24.28
2018-10-11T11:25:54.747Z,24.61
2018-10-11T11:29:17.596Z,23.77
2018-10-11T11:32:41.092Z,24.21
2018-10-11T11:36:03.968Z,23.99
2018-10-11T11:39:26.973Z,23.91
2018-10-11T11:42:50.040Z,24.88
2018-10-11T11:46:13.087Z,24.73
2018-10-11T11:49:35.996Z,24.37
2018-10-11T11:52:58.859Z,25.18
2018-10-11T11:56:21.748Z,25.18
2018-10-11T11:59:44.635Z,24.45
2018-10-11T12:03:07.470Z,24.22
2018-10-11T12:06:30.245Z,23.53
2018-10-11T12:09:53.028Z,24.46
2018-10-11T12:13:15.982Z,23.61
2018-10-11T12:16:39.144Z,24.25
2018-10-11T12:20:01.985Z,24.74
2018-10-11T12:23:25.175Z,23.87
2018-10-11T12:26:48.203Z,23.45
2018-10-11T12:30:11.203Z,24.70
2018-10-11T12:33:34.638Z,26.29
2018-10-11T12:36:57.710Z,26.46
2018-10-11T12:40:20.817Z,26.12
2018-10-11T12:43:43.805Z,25.68
2018-10-11T12:47:06.811Z,26.31
2018-10-11T12:50:29.827Z,25.39
2018-10-11T12:53:53.023Z,25.80
2018-10-11T12:57:20.845Z,24.69
2018-10-11T13:00:40.406Z,24.33
2018-10-11T13:04:03.203Z,23.86
2018-10-11T13:07:25.604Z,24.34
2018-10-11T13:10:48.293Z,24.18
2018-10-11T13:14:11.384Z,24.91
2018-10-11T13:17:40.131Z,24.95
2018-10-11T13:20:57.314Z,24.78
2018-10-11T13:24:20.961Z,24.91
2018-10-11T13:27:46.139Z,24.81
2018-10-11T13:31:09.553Z,24.48
2018-10-11T13:34:32.729Z,23.51
2018-10-11T13:37:55.847Z,23.36
2018-10-11T13:41:18.998Z,23.23
2018-10-11T13:44:41.674Z,23.17
2018-10-11T13:48:04.457Z,23.40
2018-10-11T13:55:11.114Z,23.43
2018-10-11T13:58:29.498Z,23.63
2018-10-11T14:01:53.680Z,24.45
2018-10-11T14:05:21.962Z,25.05
2018-10-11T14:08:46.110Z,25.15
2018-10-11T14:12:09.110Z,24.14
2018-10-11T14:19:58.189Z,22.94
2018-10-11T14:23:21.229Z,23.50
2018-10-11T14:26:44.218Z,23.38
2018-10-11T14:30:07.833Z,23.19
2018-10-11T14:33:30.923Z,23.13
2018-10-11T14:36:53.801Z,23.04
2018-10-11T14:40:16.809Z,22.34
2018-10-11T14:43:39.821Z,22.34
2018-10-11T14:47:02.711Z,22.04
2018-10-11T14:51:28.736Z,22.31
2018-10-11T14:54:53.325Z,22.25
2018-10-11T14:58:16.597Z,22.24
2018-10-11T15:01:39.597Z,22.22
2018-10-11T15:05:03.653Z,22.19
2018-10-11T15:08:26.670Z,22.13
2018-10-11T15:11:51.663Z,21.79
2018-10-11T15:15:16.100Z,21.88
2018-10-11T15:18:39.264Z,21.71
2018-10-11T15:22:04.297Z,21.57
2018-10-11T15:25:26.788Z,21.63
2018-10-11T15:28:49.379Z,21.49
2018-10-11T15:32:12.412Z,21.37
2018-10-11T15:35:35.373Z,21.77
2018-10-11T15:38:58.531Z,21.85
2018-10-11T15:42:21.737Z,21.70
2018-10-11T15:45:44.664Z,21.87
2018-10-11T15:49:08.194Z,22.02
2018-10-11T15:52:31.732Z,21.96
2018-10-11T15:55:54.745Z,21.72
2018-10-11T15:59:17.491Z,21.19
2018-10-11T16:02:40.462Z,21.13
2018-10-11T16:06:03.430Z,20.94
2018-10-11T16:09:26.543Z,21.18
2018-10-11T16:12:49.402Z,21.35
2018-10-11T16:16:12.236Z,21.55
2018-10-11T16:19:35.200Z,21.73
2018-10-11T16:22:58.154Z,22.13
2018-10-11T16:26:21.117Z,22.33
2018-10-11T16:29:44.201Z,22.61
2018-10-11T16:33:07.160Z,22.40
2018-10-11T16:37:33.287Z,22.34
2018-10-11T16:40:55.772Z,22.17
2018-10-11T16:44:18.352Z,22.26
2018-10-11T16:47:41.113Z,21.92
2018-10-11T16:51:04.187Z,21.63
2018-10-11T16:54:26.915Z,20.92
2018-10-11T16:57:49.877Z,20.63
2018-10-11T17:01:12.682Z,20.69
2018-10-11T17:04:35.418Z,20.53
2018-10-11T17:07:58.544Z,20.83
2018-10-11T17:11:21.348Z,20.58
2018-10-11T17:14:44.557Z,20.67
2018-10-11T17:18:07.557Z,20.01
2018-10-11T17:21:34.419Z,20.07
2018-10-11T17:24:57.502Z,20.09
2018-10-11T17:28:21.358Z,20.01
2018-10-11T17:31:44.113Z,20.08
2018-10-11T17:35:08.659Z,19.77
2018-10-11T17:38:32.476Z,19.83
2018-10-11T17:41:55.652Z,19.90
2018-10-11T17:45:18.661Z,19.64
2018-10-11T17:49:44.530Z,19.25
2018-10-11T17:53:07.492Z,19.16
2018-10-11T17:56:30.282Z,18.95
2018-10-11T17:59:53.959Z,19.04
2018-10-11T18:03:19.148Z,18.62
2018-10-11T18:06:42.854Z,18.93
2018-10-11T18:10:07.266Z,19.33
2018-10-11T18:13:31.853Z,19.02
2018-10-11T18:16:54.935Z,18.78
2018-10-11T18:20:18.937Z,18.30
2018-10-11T18:23:43.852Z,17.95
2018-10-11T18:27:06.722Z,17.79
2018-10-11T18:30:31.640Z,17.83
2018-10-11T18:33:54.928Z,17.43
2018-10-11T18:37:18.698Z,17.70
2018-10-11T18:40:41.692Z,17.86
2018-10-11T18:44:04.609Z,17.91
2018-10-11T18:47:28.683Z,17.73
2018-10-11T18:50:51.627Z,17.45
2018-10-11T18:54:14.525Z,17.56
2018-10-11T18:57:38.252Z,17.50
2018-10-11T19:01:01.261Z,17.67
2018-10-11T19:04:24.273Z,17.43
2018-10-11T19:07:47.176Z,17.51
2018-10-11T19:11:10.770Z,16.57
2018-10-11T19:14:33.695Z,16.19
2018-10-11T19:17:57.556Z,16.43
2018-10-11T19:21:20.362Z,16.59
2018-10-11T19:24:43.309Z,16.55
2018-10-11T19:28:06.358Z,16.81
2018-10-11T19:31:37.681Z,16.71
2018-10-11T19:35:00.533Z,16.19
2018-10-11T19:38:23.472Z,15.94
2018-10-11T19:42:49.246Z,15.76
2018-10-11T19:46:12.459Z,15.14
2018-10-11T19:50:38.418Z,15.42
2018-10-11T19:54:01.058Z,15.56
2018-10-11T19:57:23.750Z,15.34
2018-10-11T20:00:46.565Z,15.26
2018-10-11T20:04:09.316Z,15.23
2018-10-11T20:07:32.576Z,15.01
2018-10-11T20:10:55.455Z,15.31
2018-10-11T20:14:19.926Z,15.53
2018-10-11T20:17:44.635Z,15.51
2018-10-11T20:21:08.187Z,15.73
2018-10-11T20:24:31.511Z,16.08
2018-10-11T20:27:54.404Z,16.38
2018-10-11T20:31:17.575Z,16.16
2018-10-11T20:34:40.564Z,16.24
2018-10-11T20:38:03.403Z,16.28
2018-10-11T20:41:26.325Z,16.15
2018-10-11T20:44:49.406Z,16.08
2018-10-11T20:48:12.358Z,16.20
2018-10-11T20:51:36.091Z,14.89
2018-10-11T20:54:59.020Z,15.71
2018-10-11T21:01:58.179Z,16.28
2018-10-11T21:05:21.007Z,15.81
2018-10-11T21:08:43.840Z,15.62
2018-10-11T21:12:06.755Z,15.52
2018-10-11T21:15:29.742Z,15.51
2018-10-11T21:18:52.498Z,15.55
2018-10-11T21:22:17.048Z,15.54
2018-10-11T21:25:41.373Z,15.96
2018-10-11T21:29:06.317Z,15.96
2018-10-11T21:32:44.053Z,15.97
2018-10-11T21:36:06.928Z,16.22
2018-10-11T21:39:29.730Z,16.57
2018-10-11T21:42:52.597Z,16.73
2018-10-11T21:46:15.482Z,16.36
2018-10-11T21:49:38.179Z,14.63
2018-10-11T21:53:00.965Z,14.56
2018-10-11T21:56:24.098Z,14.80
2018-10-11T21:59:46.836Z,15.20
2018-10-11T22:03:09.783Z,15.64
2018-10-11T22:06:33.581Z,15.68
2018-10-11T22:09:56.663Z,15.37
2018-10-11T22:13:20.563Z,14.65
2018-10-11T22:16:43.506Z,14.71
2018-10-11T22:20:08.406Z,14.80
2018-10-11T22:23:36.204Z,14.60
2018-10-11T22:27:02.780Z,14.87
2018-10-11T22:30:26.894Z,14.83
2018-10-11T22:33:49.867Z,14.67
2018-10-11T22:37:12.805Z,14.70
2018-10-11T22:40:35.561Z,14.39
2018-10-11T22:43:58.746Z,14.78
2018-10-11T22:47:21.505Z,14.92
2018-10-11T22:51:47.334Z,14.63
2018-10-11T22:55:10.611Z,14.10
2018-10-11T22:58:33.817Z,14.21
2018-10-11T23:01:57.323Z,14.23
2018-10-11T23:05:52.273Z,14.13
2018-10-11T23:09:15.305Z,13.25
2018-10-11T23:12:38.488Z,13.58
2018-10-11T23:16:01.642Z,13.76
2018-10-11T23:19:24.801Z,13.42
2018-10-11T23:22:47.828Z,13.23
2018-10-11T23:26:10.780Z,13.80
2018-10-11T23:29:34.131Z,14.02
2018-10-11T23:32:56.999Z,13.99
2018-10-11T23:36:20.062Z,14.09
2018-10-11T23:39:44.019Z,14.08
2018-10-11T23:43:08.747Z,13.67
2018-10-11T23:46:35.924Z,13.91
2018-10-11T23:49:58.955Z,13.62
2018-10-11T23:53:22.043Z,13.93
2018-10-11T23:56:44.927Z,13.70
